createdAt,value
2017-05-23T00:01:09.678Z,23.88
2017-05-23T00:02:19.581Z,23.97
2017-05-23T00:03:29.810Z,23.98
2017-05-23T00:04:40.053Z,23.95
2017-05-23T00:08:22.644Z,23.93
2017-05-23T00:12:05.259Z,23.9
2017-05-23T00:13:15.170Z,23.9
2017-05-23T00:14:24.774Z,23.9
2017-05-23T00:15:34.389Z,23.87
2017-05-23T00:16:43.997Z,23.94
2017-05-23T00:17:54.225Z,23.9
2017-05-23T00:19:04.508Z,23.88
2017-05-23T00:20:14.729Z,23.85
2017-05-23T00:21:24.631Z,23.87
2017-05-23T00:22:34.854Z,23.87
2017-05-23T00:23:44.784Z,23.9
2017-05-23T00:24:54.547Z,23.85
2017-05-23T00:26:04.772Z,23.88
2017-05-23T00:27:14.992Z,23.88
2017-05-23T00:28:24.906Z,23.95
2017-05-23T00:29:35.126Z,23.79
2017-05-23T00:30:45.160Z,23.78
2017-05-23T00:31:55.400Z,23.83
2017-05-23T00:33:05.632Z,23.88
2017-05-23T00:34:15.928Z,23.68
2017-05-23T00:35:25.554Z,23.79
2017-05-23T00:36:35.478Z,23.73
2017-05-23T00:37:45.696Z,23.78
2017-05-23T00:38:55.625Z,23.83
2017-05-23T00:40:05.233Z,23.83
2017-05-23T00:41:14.536Z,23.73
2017-05-23T00:42:24.801Z,23.76
2017-05-23T00:43:34.746Z,23.79
2017-05-23T00:44:44.989Z,23.69
2017-05-23T00:45:54.893Z,23.83
2017-05-23T00:47:05.119Z,23.76
2017-05-23T00:48:15.493Z,23.8
2017-05-23T00:49:25.705Z,23.75
2017-05-23T00:50:35.624Z,23.72
2017-05-23T00:51:45.533Z,23.8
2017-05-23T00:52:55.441Z,23.7
2017-05-23T00:54:05.667Z,23.73
2017-05-23T00:55:15.892Z,23.79
2017-05-23T00:56:25.821Z,23.75
2017-05-23T00:57:36.052Z,23.79
2017-05-23T00:58:45.052Z,23.66
2017-05-23T00:59:54.765Z,23.73
2017-05-23T01:01:04.690Z,23.72
2017-05-23T01:02:14.673Z,23.76
2017-05-23T01:03:24.590Z,23.68
2017-05-23T01:04:34.824Z,23.78
2017-05-23T01:05:45.101Z,23.75
2017-05-23T01:06:55.316Z,23.69
2017-05-23T01:08:04.920Z,23.72
2017-05-23T01:09:14.843Z,23.66
2017-05-23T01:10:24.824Z,23.7
2017-05-23T01:11:34.742Z,23.72
2017-05-23T01:12:44.338Z,23.73
2017-05-23T01:13:54.560Z,23.76
2017-05-23T01:15:04.788Z,23.73
2017-05-23T01:16:15.010Z,23.63
2017-05-23T01:17:25.077Z,23.66
2017-05-23T01:18:35.042Z,23.65
2017-05-23T01:19:45.266Z,23.68
2017-05-23T01:20:55.476Z,23.63
2017-05-23T01:22:05.698Z,23.55
2017-05-23T01:23:15.768Z,23.65
2017-05-23T01:24:25.683Z,23.61
2017-05-23T01:25:35.604Z,23.7
2017-05-23T01:26:45.211Z,23.68
2017-05-23T01:27:55.429Z,23.66
2017-05-23T01:29:05.071Z,23.58
2017-05-23T01:30:14.985Z,23.55
2017-05-23T01:31:24.612Z,23.63
2017-05-23T01:32:34.520Z,23.53
2017-05-23T01:33:44.436Z,23.5
2017-05-23T01:34:54.563Z,23.54
2017-05-23T01:36:04.486Z,23.6
2017-05-23T01:37:14.701Z,23.57
2017-05-23T01:38:24.603Z,23.6
2017-05-23T01:39:34.826Z,23.51
2017-05-23T01:40:44.582Z,23.55
2017-05-23T01:41:54.506Z,23.51
2017-05-23T01:43:04.409Z,23.47
2017-05-23T01:44:14.337Z,23.51
2017-05-23T01:45:23.945Z,23.51
2017-05-23T01:46:33.762Z,23.57
2017-05-23T01:47:43.409Z,23.46
2017-05-23T01:48:53.017Z,23.46
2017-05-23T01:50:02.922Z,23.5
2017-05-23T01:51:13.138Z,23.47
2017-05-23T01:52:23.423Z,23.42
2017-05-23T01:53:33.354Z,23.4
2017-05-23T01:54:43.588Z,23.47
2017-05-23T01:55:53.810Z,23.39
2017-05-23T01:57:03.430Z,23.4
2017-05-23T01:58:13.527Z,23.35
2017-05-23T01:59:23.460Z,23.35
2017-05-23T02:00:33.376Z,23.35
2017-05-23T02:01:43.300Z,23.39
2017-05-23T02:02:53.222Z,23.36
2017-05-23T02:04:03.235Z,23.38
2017-05-23T02:05:13.171Z,23.32
2017-05-23T02:06:22.487Z,23.39
2017-05-23T02:07:31.789Z,23.36
2017-05-23T02:08:41.732Z,23.43
2017-05-23T02:09:52.049Z,23.33
2017-05-23T02:11:02.270Z,23.39
2017-05-23T02:12:12.179Z,23.33
2017-05-23T02:13:22.402Z,23.39
2017-05-23T02:14:32.324Z,23.35
2017-05-23T02:15:42.754Z,23.4
2017-05-23T02:16:52.979Z,23.39
2017-05-23T02:18:03.194Z,23.28
2017-05-23T02:19:13.440Z,23.36
2017-05-23T02:20:23.379Z,23.28
2017-05-23T02:21:33.707Z,23.2
2017-05-23T02:22:43.074Z,23.38
2017-05-23T02:23:52.688Z,23.31
2017-05-23T02:25:02.596Z,23.31
2017-05-23T02:26:12.527Z,23.31
2017-05-23T02:27:22.595Z,23.23
2017-05-23T02:28:32.503Z,23.25
2017-05-23T02:29:42.425Z,23.25
2017-05-23T02:30:52.415Z,23.27
2017-05-23T02:32:02.022Z,23.27
2017-05-23T02:33:12.233Z,23.27
2017-05-23T02:34:22.137Z,23.27
2017-05-23T02:35:31.734Z,23.23
2017-05-23T02:36:41.653Z,23.23
2017-05-23T02:37:51.265Z,23.15
2017-05-23T02:39:01.333Z,23.27
2017-05-23T02:40:11.243Z,23.25
2017-05-23T02:41:21.160Z,23.2
2017-05-23T02:42:31.387Z,23.27
2017-05-23T02:43:40.992Z,23.17
2017-05-23T02:44:50.692Z,23.19
2017-05-23T02:46:00.915Z,23.27
2017-05-23T02:47:11.136Z,23.25
2017-05-23T02:48:20.734Z,23.17
2017-05-23T02:49:30.352Z,23.23
2017-05-23T02:50:40.104Z,23.2
2017-05-23T02:51:50.024Z,23.19
2017-05-23T02:52:59.936Z,23.16
2017-05-23T02:54:09.849Z,23.23
2017-05-23T02:55:19.452Z,23.23
2017-05-23T02:56:29.561Z,23.17
2017-05-23T02:57:38.857Z,23.16
2017-05-23T02:58:48.462Z,23.28
2017-05-23T02:59:58.367Z,23.27
2017-05-23T03:01:08.593Z,23.2
2017-05-23T03:02:18.346Z,23.27
2017-05-23T03:03:27.946Z,23.19
2017-05-23T03:04:37.846Z,23.17
2017-05-23T03:05:47.473Z,23.28
2017-05-23T03:06:57.080Z,23.23
2017-05-23T03:08:07.340Z,23.17
2017-05-23T03:09:17.253Z,23.19
2017-05-23T03:10:27.198Z,23.19
2017-05-23T03:11:37.414Z,23.13
2017-05-23T03:12:47.038Z,23.17
2017-05-23T03:13:56.954Z,23.19
2017-05-23T03:15:07.182Z,23.15
2017-05-23T03:16:16.794Z,23.15
2017-05-23T03:17:26.715Z,23.16
2017-05-23T03:18:36.326Z,23.17
2017-05-23T03:19:46.645Z,23.15
2017-05-23T03:20:56.252Z,23.15
2017-05-23T03:22:06.157Z,23.1
2017-05-23T03:23:15.780Z,23.09
2017-05-23T03:24:25.997Z,23.19
2017-05-23T03:25:36.211Z,23.09
2017-05-23T03:26:46.429Z,23.09
2017-05-23T03:27:56.033Z,23.07
2017-05-23T03:29:06.254Z,23.1
2017-05-23T03:30:15.561Z,23.04
2017-05-23T03:31:25.469Z,23.09
2017-05-23T03:32:36.072Z,23.04
2017-05-23T03:33:46.300Z,23.09
2017-05-23T03:34:56.208Z,23.07
2017-05-23T03:36:06.446Z,23.07
2017-05-23T03:37:16.067Z,23.09
2017-05-23T03:38:26.288Z,23.05
2017-05-23T03:39:36.522Z,23.07
2017-05-23T03:40:46.445Z,23.15
2017-05-23T03:41:56.353Z,23.07
2017-05-23T03:43:06.673Z,23.09
2017-05-23T03:44:16.588Z,23.02
2017-05-23T03:45:26.520Z,23.07
2017-05-23T03:46:36.426Z,23.07
2017-05-23T03:47:46.709Z,23.13
2017-05-23T03:48:56.633Z,23.09
2017-05-23T03:50:06.914Z,23.05
2017-05-23T03:51:16.531Z,23.05
2017-05-23T03:52:26.445Z,23.1
2017-05-23T03:53:36.042Z,23.07
2017-05-23T03:54:46.267Z,23.1
2017-05-23T03:55:55.571Z,23.13
2017-05-23T03:57:05.496Z,23.04
2017-05-23T03:58:15.730Z,23.07
2017-05-23T03:59:25.658Z,23.05
2017-05-23T04:00:35.434Z,22.97
2017-05-23T04:01:45.352Z,23.1
2017-05-23T04:02:54.986Z,23.07
2017-05-23T04:04:05.209Z,23.05
2017-05-23T04:05:15.436Z,23.05
2017-05-23T04:06:24.899Z,23.09
2017-05-23T04:07:34.834Z,23.01
2017-05-23T04:08:44.133Z,23.01
2017-05-23T04:09:54.050Z,23.04
2017-05-23T04:11:04.275Z,23.05
2017-05-23T04:12:14.498Z,23.09
2017-05-23T04:13:24.405Z,23.05
2017-05-23T04:14:34.631Z,23.07
2017-05-23T04:15:43.959Z,23
2017-05-23T04:16:54.181Z,23.05
2017-05-23T04:18:04.253Z,23.07
2017-05-23T04:19:14.476Z,23.07
2017-05-23T04:20:24.086Z,23.01
2017-05-23T04:21:34.005Z,23.05
2017-05-23T04:22:43.922Z,23.1
2017-05-23T04:23:54.310Z,23.04
2017-05-23T04:25:04.220Z,23.04
2017-05-23T04:26:14.166Z,23.07
2017-05-23T04:27:24.084Z,23.1
2017-05-23T04:28:34.298Z,23.13
2017-05-23T04:29:44.212Z,23.05
2017-05-23T04:30:53.820Z,23.07
2017-05-23T04:32:04.057Z,23.05
2017-05-23T04:33:13.972Z,23.02
2017-05-23T04:34:23.574Z,23.07
2017-05-23T04:35:33.948Z,23.13
2017-05-23T04:36:43.870Z,23.05
2017-05-23T04:37:54.098Z,23.05
2017-05-23T04:39:04.018Z,23.1
2017-05-23T04:40:13.962Z,23.1
2017-05-23T04:41:23.879Z,23.07
2017-05-23T04:42:33.482Z,23.04
2017-05-23T04:43:43.115Z,23.09
2017-05-23T04:44:53.053Z,23.07
2017-05-23T04:46:02.998Z,23.09
2017-05-23T04:47:12.629Z,23.07
2017-05-23T04:48:22.253Z,23.04
2017-05-23T04:49:32.492Z,23.12
2017-05-23T04:50:42.414Z,23.12
2017-05-23T04:51:52.626Z,23.12
2017-05-23T04:53:02.035Z,23.02
2017-05-23T04:54:11.954Z,23.09
2017-05-23T04:55:22.216Z,23.17
2017-05-23T04:56:31.816Z,23.19
2017-05-23T04:57:41.758Z,23.2
2017-05-23T04:58:51.672Z,23.13
2017-05-23T05:00:01.596Z,23.19
2017-05-23T05:01:11.511Z,23.23
2017-05-23T05:02:21.163Z,23.32
2017-05-23T05:03:31.084Z,23.42
2017-05-23T05:04:41.183Z,23.4
2017-05-23T05:05:50.794Z,23.43
2017-05-23T05:07:00.726Z,23.51
2017-05-23T05:08:10.969Z,23.6
2017-05-23T05:09:20.910Z,23.63
2017-05-23T05:10:31.131Z,23.66
2017-05-23T05:11:41.056Z,23.79
2017-05-23T05:12:50.985Z,23.76
2017-05-23T05:14:01.222Z,23.87
2017-05-23T05:15:11.446Z,23.88
2017-05-23T05:16:20.593Z,24.02
2017-05-23T05:17:30.805Z,24.06
2017-05-23T05:18:40.727Z,24.21
2017-05-23T05:19:50.939Z,24.32
2017-05-23T05:21:00.857Z,24.32
2017-05-23T05:22:10.938Z,24.32
2017-05-23T05:23:20.253Z,24.45
2017-05-23T05:24:30.494Z,24.52
2017-05-23T05:25:40.397Z,24.53
2017-05-23T05:26:50.618Z,24.68
2017-05-23T05:28:00.832Z,24.76
2017-05-23T05:29:10.442Z,24.77
2017-05-23T05:30:20.368Z,24.93
2017-05-23T05:31:29.962Z,24.99
2017-05-23T05:32:39.574Z,25.03
2017-05-23T05:33:49.647Z,25.14
2017-05-23T05:34:59.865Z,25.24
2017-05-23T05:36:09.803Z,25.27
2017-05-23T05:37:19.111Z,25.3
2017-05-23T05:38:29.049Z,25.45
2017-05-23T05:39:38.807Z,25.46
2017-05-23T05:40:48.413Z,25.54
2017-05-23T05:41:57.707Z,25.64
2017-05-23T05:43:07.633Z,25.76
2017-05-23T05:44:17.252Z,25.8
2017-05-23T05:45:27.506Z,25.92
2017-05-23T05:46:37.111Z,25.95
2017-05-23T05:47:47.335Z,25.95
2017-05-23T05:48:57.251Z,26.15
2017-05-23T05:50:06.546Z,26.07
2017-05-23T05:51:16.367Z,26.28
2017-05-23T05:52:26.339Z,26.28
2017-05-23T05:53:36.006Z,26.39
2017-05-23T05:54:46.237Z,26.47
2017-05-23T05:55:56.166Z,26.51
2017-05-23T05:57:06.409Z,26.51
2017-05-23T05:58:16.327Z,26.62
2017-05-23T05:59:25.924Z,26.72
2017-05-23T06:00:36.142Z,26.75
2017-05-23T06:01:46.737Z,26.81
2017-05-23T06:02:57.279Z,26.85
2017-05-23T06:04:07.193Z,26.92
2017-05-23T06:05:16.794Z,26.95
2017-05-23T06:06:26.405Z,26.97
2017-05-23T06:07:36.310Z,27
2017-05-23T06:08:46.388Z,27.04
2017-05-23T06:09:56.313Z,27.02
2017-05-23T06:11:06.231Z,27.14
2017-05-23T06:12:16.462Z,27.18
2017-05-23T06:13:25.840Z,27.18
2017-05-23T06:14:36.426Z,27.18
2017-05-23T06:15:46.040Z,27.31
2017-05-23T06:16:55.658Z,27.29
2017-05-23T06:18:05.889Z,27.34
2017-05-23T06:19:15.808Z,27.41
2017-05-23T06:20:25.908Z,27.36
2017-05-23T06:21:35.830Z,27.37
2017-05-23T06:22:45.748Z,27.39
2017-05-23T06:23:55.362Z,27.4
2017-05-23T06:25:05.297Z,27.49
2017-05-23T06:26:14.909Z,27.55
2017-05-23T06:27:24.525Z,27.55
2017-05-23T06:28:34.446Z,27.6
2017-05-23T06:29:44.356Z,27.69
2017-05-23T06:30:54.637Z,27.63
2017-05-23T06:32:04.958Z,27.59
2017-05-23T06:33:15.186Z,27.66
2017-05-23T06:34:25.108Z,27.51
2017-05-23T06:35:35.339Z,27.49
2017-05-23T06:36:44.949Z,27.59
2017-05-23T06:37:54.709Z,27.59
2017-05-23T06:39:04.632Z,27.47
2017-05-23T06:40:14.553Z,27.44
2017-05-23T06:41:24.167Z,27.44
2017-05-23T06:42:33.826Z,27.41
2017-05-23T06:43:43.892Z,27.36
2017-05-23T06:44:53.187Z,27.32
2017-05-23T06:46:03.398Z,27.37
2017-05-23T06:47:13.313Z,27.27
2017-05-23T06:48:22.934Z,27.36
2017-05-23T06:49:32.877Z,27.34
2017-05-23T06:50:42.228Z,27.36
2017-05-23T06:51:52.153Z,27.41
2017-05-23T06:53:02.073Z,27.62
2017-05-23T06:54:11.996Z,27.78
2017-05-23T06:55:21.777Z,28.03
2017-05-23T06:56:31.387Z,28.21
2017-05-23T06:57:41.308Z,28.39
2017-05-23T06:58:51.218Z,28.67
2017-05-23T07:00:01.131Z,28.85
2017-05-23T07:01:10.747Z,29.04
2017-05-23T07:02:20.368Z,29.31
2017-05-23T07:03:29.988Z,29.49
2017-05-23T07:04:40.704Z,29.67
2017-05-23T07:05:52.035Z,29.7
2017-05-23T07:07:02.254Z,30.05
2017-05-23T07:08:12.199Z,30.27
2017-05-23T07:09:21.841Z,30.39
2017-05-23T07:10:32.062Z,30.55
2017-05-23T07:11:41.997Z,30.69
2017-05-23T07:12:51.607Z,30.8
2017-05-23T07:14:01.244Z,31.01
2017-05-23T07:15:11.480Z,31.12
2017-05-23T07:16:20.792Z,31.43
2017-05-23T07:17:30.419Z,31.69
2017-05-23T07:18:40.204Z,31.86
2017-05-23T07:19:49.845Z,32.1
2017-05-23T07:21:00.075Z,32.26
2017-05-23T07:22:09.689Z,32.44
2017-05-23T07:23:19.908Z,32.59
2017-05-23T07:24:29.828Z,32.7
2017-05-23T07:25:40.128Z,32.92
2017-05-23T07:26:50.043Z,32.94
2017-05-23T07:27:59.642Z,32.92
2017-05-23T07:29:09.873Z,32.89
2017-05-23T07:30:19.936Z,32.93
2017-05-23T07:31:29.855Z,32.99
2017-05-23T07:32:39.800Z,33.09
2017-05-23T07:33:50.045Z,33.06
2017-05-23T07:35:00.272Z,33.16
2017-05-23T07:36:09.940Z,33.32
2017-05-23T07:37:20.239Z,33.44
2017-05-23T07:38:30.166Z,33.5
2017-05-23T07:39:40.138Z,33.53
2017-05-23T07:40:49.757Z,33.65
2017-05-23T07:41:59.370Z,33.81
2017-05-23T07:43:08.676Z,33.88
2017-05-23T07:44:18.908Z,34.03
2017-05-23T07:45:28.868Z,34.15
2017-05-23T07:46:38.782Z,34.21
2017-05-23T07:47:48.559Z,34.27
2017-05-23T07:48:58.796Z,34.15
2017-05-23T07:50:08.721Z,34.31
2017-05-23T07:51:18.632Z,34.4
2017-05-23T07:52:28.556Z,34.54
2017-05-23T07:53:38.948Z,34.69
2017-05-23T07:54:49.186Z,34.75
2017-05-23T07:55:58.801Z,34.82
2017-05-23T07:57:08.778Z,34.81
2017-05-23T07:58:18.712Z,34.81
2017-05-23T07:59:28.169Z,34.89
2017-05-23T08:00:37.181Z,35.02
2017-05-23T08:01:47.102Z,35.21
2017-05-23T08:02:57.334Z,35.26
2017-05-23T08:04:07.270Z,35.43
2017-05-23T08:05:17.040Z,35.44
2017-05-23T08:06:27.281Z,35.45
2017-05-23T08:07:36.893Z,35.62
2017-05-23T08:08:46.816Z,35.66
2017-05-23T08:09:56.755Z,35.85
2017-05-23T08:11:07.032Z,35.85
2017-05-23T08:12:17.267Z,35.9
2017-05-23T08:13:27.522Z,35.97
2017-05-23T08:14:37.751Z,35.9
2017-05-23T08:15:46.750Z,35.97
2017-05-23T08:16:56.669Z,35.93
2017-05-23T08:18:06.602Z,36.01
2017-05-23T08:19:16.845Z,36.01
2017-05-23T08:20:26.764Z,35.94
2017-05-23T08:21:36.674Z,36.01
2017-05-23T08:22:45.969Z,35.81
2017-05-23T08:23:55.272Z,35.58
2017-05-23T08:25:05.227Z,35.53
2017-05-23T08:26:15.142Z,35.55
2017-05-23T08:27:25.074Z,35.55
2017-05-23T08:28:35.140Z,35.58
2017-05-23T08:29:45.401Z,35.72
2017-05-23T08:30:55.043Z,35.65
2017-05-23T08:32:05.258Z,35.81
2017-05-23T08:33:15.553Z,35.77
2017-05-23T08:34:24.875Z,35.65
2017-05-23T08:35:34.487Z,35.71
2017-05-23T08:36:44.466Z,35.7
2017-05-23T08:37:54.699Z,35.68
2017-05-23T08:39:04.307Z,35.71
2017-05-23T08:40:13.624Z,35.66
2017-05-23T08:41:23.250Z,35.74
2017-05-23T08:42:33.481Z,35.59
2017-05-23T08:43:43.437Z,35.41
2017-05-23T08:44:53.357Z,35.21
2017-05-23T08:46:03.734Z,34.85
2017-05-23T08:47:13.661Z,34.64
2017-05-23T08:48:23.906Z,34.24
2017-05-23T08:49:33.828Z,33.87
2017-05-23T08:50:44.059Z,33.56
2017-05-23T08:51:53.535Z,33.28
2017-05-23T08:53:03.454Z,33.01
2017-05-23T08:54:13.081Z,32.84
2017-05-23T08:55:23.010Z,32.56
2017-05-23T08:56:32.621Z,32.29
2017-05-23T08:57:42.725Z,32.04
2017-05-23T08:58:52.662Z,31.84
2017-05-23T09:00:02.882Z,31.7
2017-05-23T09:01:11.870Z,31.41
2017-05-23T09:02:21.542Z,31.26
2017-05-23T09:03:31.816Z,31.07
2017-05-23T09:04:41.793Z,30.95
2017-05-23T09:05:51.725Z,30.76
2017-05-23T09:07:01.648Z,30.67
2017-05-23T09:08:10.958Z,30.38
2017-05-23T09:09:20.127Z,30.31
2017-05-23T09:10:29.803Z,30.17
2017-05-23T09:11:40.043Z,30.04
2017-05-23T09:12:49.980Z,29.87
2017-05-23T09:13:59.290Z,29.74
2017-05-23T09:15:08.902Z,29.61
2017-05-23T09:16:18.522Z,29.51
2017-05-23T09:17:28.751Z,29.45
2017-05-23T09:18:38.970Z,29.3
2017-05-23T09:19:48.909Z,29.24
2017-05-23T09:20:58.829Z,29.12
2017-05-23T09:22:08.515Z,29.05
2017-05-23T09:23:18.141Z,28.93
2017-05-23T09:24:27.799Z,28.9
2017-05-23T09:25:37.729Z,28.78
2017-05-23T09:26:47.654Z,28.7
2017-05-23T09:27:57.624Z,28.66
2017-05-23T09:29:07.551Z,28.58
2017-05-23T09:30:17.778Z,28.58
2017-05-23T09:31:28.010Z,28.54
2017-05-23T09:32:38.092Z,28.33
2017-05-23T09:33:47.418Z,28.31
2017-05-23T09:34:57.644Z,28.25
2017-05-23T09:36:07.598Z,28.19
2017-05-23T09:37:17.517Z,28.06
2017-05-23T09:38:27.811Z,28.06
2017-05-23T09:39:37.428Z,28.02
2017-05-23T09:40:47.351Z,28
2017-05-23T09:41:56.971Z,27.94
2017-05-23T09:43:06.912Z,27.88
2017-05-23T09:44:16.540Z,27.84
2017-05-23T09:45:26.765Z,27.81
2017-05-23T09:46:36.987Z,27.75
2017-05-23T09:47:46.610Z,27.69
2017-05-23T09:48:56.845Z,27.65
2017-05-23T09:50:06.616Z,27.54
2017-05-23T09:51:16.247Z,27.49
2017-05-23T09:52:26.512Z,27.41
2017-05-23T09:53:36.750Z,27.37
2017-05-23T09:54:46.986Z,27.4
2017-05-23T09:55:56.455Z,27.31
2017-05-23T09:57:06.577Z,27.36
2017-05-23T09:58:16.531Z,27.39
2017-05-23T09:59:26.470Z,27.32
2017-05-23T10:00:36.377Z,27.32
2017-05-23T10:01:46.297Z,27.24
2017-05-23T10:02:56.523Z,27.25
2017-05-23T10:04:06.177Z,27.21
2017-05-23T10:05:16.105Z,27.22
2017-05-23T10:06:26.038Z,27.13
2017-05-23T10:07:35.458Z,27.13
2017-05-23T10:08:45.377Z,27.13
2017-05-23T10:09:55.606Z,27.06
2017-05-23T10:11:04.606Z,27
2017-05-23T10:12:14.215Z,27.03
2017-05-23T10:13:24.288Z,27
2017-05-23T10:14:34.528Z,26.95
2017-05-23T10:15:44.446Z,27
2017-05-23T10:16:54.691Z,26.92
2017-05-23T10:18:04.304Z,26.91
2017-05-23T10:19:14.223Z,26.85
2017-05-23T10:20:23.529Z,26.87
2017-05-23T10:21:33.458Z,26.85
2017-05-23T10:22:42.779Z,26.84
2017-05-23T10:23:52.699Z,26.81
2017-05-23T10:25:02.778Z,26.8
2017-05-23T10:26:13.019Z,26.75
2017-05-23T10:27:22.954Z,26.8
2017-05-23T10:28:32.268Z,26.76
2017-05-23T10:29:42.188Z,26.75
2017-05-23T10:30:52.299Z,26.76
2017-05-23T10:32:02.520Z,26.73
2017-05-23T10:33:12.131Z,26.76
2017-05-23T10:34:21.819Z,26.76
2017-05-23T10:35:31.755Z,26.8
2017-05-23T10:36:42.136Z,26.77
2017-05-23T10:37:52.060Z,26.75
2017-05-23T10:39:01.992Z,26.76
2017-05-23T10:40:11.604Z,26.73
2017-05-23T10:41:20.912Z,26.72
2017-05-23T10:42:30.362Z,26.77
2017-05-23T10:43:40.286Z,26.72
2017-05-23T10:44:50.214Z,26.75
2017-05-23T10:45:59.845Z,26.73
2017-05-23T10:47:09.765Z,26.62
2017-05-23T10:48:20.044Z,26.6
2017-05-23T10:49:29.654Z,26.65
2017-05-23T10:50:39.274Z,26.66
2017-05-23T10:51:48.952Z,26.67
2017-05-23T10:52:58.880Z,26.6
2017-05-23T10:54:08.956Z,26.65
2017-05-23T10:55:18.859Z,26.65
2017-05-23T10:56:27.549Z,26.63
2017-05-23T10:57:37.787Z,26.65
2017-05-23T10:58:47.711Z,26.58
2017-05-23T10:59:57.629Z,26.57
2017-05-23T11:01:07.553Z,26.58
2017-05-23T11:02:17.185Z,26.62
2017-05-23T11:03:26.555Z,26.55
2017-05-23T11:04:36.174Z,26.57
2017-05-23T11:05:45.927Z,26.55
2017-05-23T11:06:55.869Z,26.57
2017-05-23T11:08:05.481Z,26.47
2017-05-23T11:09:15.095Z,26.5
2017-05-23T11:10:25.018Z,26.5
2017-05-23T11:11:35.474Z,26.45
2017-05-23T11:12:45.667Z,26.43
2017-05-23T11:13:55.902Z,26.44
2017-05-23T11:15:06.188Z,26.45
2017-05-23T11:16:16.415Z,26.48
2017-05-23T11:17:26.126Z,26.43
2017-05-23T11:18:35.745Z,26.44
2017-05-23T11:19:45.376Z,26.47
2017-05-23T11:20:55.608Z,26.4
2017-05-23T11:22:05.529Z,26.43
2017-05-23T11:23:15.931Z,26.44
2017-05-23T11:24:25.862Z,26.44
2017-05-23T11:25:35.465Z,26.45
2017-05-23T11:26:45.692Z,26.45
2017-05-23T11:27:55.311Z,26.39
2017-05-23T11:29:04.365Z,26.47
2017-05-23T11:30:14.903Z,26.44
2017-05-23T11:31:24.842Z,26.44
2017-05-23T11:32:34.764Z,26.48
2017-05-23T11:33:44.991Z,26.44
2017-05-23T11:34:54.920Z,26.44
2017-05-23T11:36:04.531Z,26.5
2017-05-23T11:37:14.517Z,26.45
2017-05-23T11:38:24.442Z,26.43
2017-05-23T11:39:34.103Z,26.37
2017-05-23T11:40:43.707Z,26.47
2017-05-23T11:41:53.652Z,26.37
2017-05-23T11:43:03.273Z,26.4
2017-05-23T11:44:13.198Z,26.45
2017-05-23T11:45:23.120Z,26.45
2017-05-23T11:46:32.734Z,26.44
2017-05-23T11:47:42.345Z,26.47
2017-05-23T11:48:51.979Z,26.37
2017-05-23T11:50:02.275Z,26.39
2017-05-23T11:51:11.948Z,26.35
2017-05-23T11:52:22.235Z,26.4
2017-05-23T11:53:32.455Z,26.37
2017-05-23T11:54:42.707Z,26.36
2017-05-23T11:55:52.014Z,26.37
2017-05-23T11:57:01.632Z,26.33
2017-05-23T11:58:11.867Z,26.39
2017-05-23T11:59:21.788Z,26.3
2017-05-23T12:00:32.044Z,26.36
2017-05-23T12:01:41.657Z,26.35
2017-05-23T12:02:51.363Z,26.35
2017-05-23T12:04:01.292Z,26.26
2017-05-23T12:05:10.917Z,26.36
2017-05-23T12:06:21.150Z,26.33
2017-05-23T12:07:31.282Z,26.28
2017-05-23T12:08:41.503Z,26.3
2017-05-23T12:09:51.496Z,26.35
2017-05-23T12:11:01.493Z,26.26
2017-05-23T12:12:11.110Z,26.32
2017-05-23T12:13:20.419Z,26.21
2017-05-23T12:14:30.050Z,26.25
2017-05-23T12:15:39.674Z,26.29
2017-05-23T12:16:49.884Z,26.3
2017-05-23T12:17:59.489Z,26.3
2017-05-23T12:19:09.089Z,26.25
2017-05-23T12:20:19.028Z,26.26
2017-05-23T12:21:29.252Z,26.29
2017-05-23T12:22:38.561Z,26.21
2017-05-23T12:23:48.180Z,26.29
2017-05-23T12:24:57.814Z,26.33
2017-05-23T12:26:07.738Z,26.29
2017-05-23T12:27:18.127Z,26.3
2017-05-23T12:28:27.750Z,26.25
2017-05-23T12:29:37.974Z,26.25
2017-05-23T12:30:47.887Z,26.28
2017-05-23T12:31:57.833Z,26.25
2017-05-23T12:33:07.766Z,26.21
2017-05-23T12:34:17.717Z,26.3
2017-05-23T12:35:27.335Z,26.32
2017-05-23T12:36:37.566Z,26.28
2017-05-23T12:37:47.490Z,26.23
2017-05-23T12:38:57.119Z,26.33
2017-05-23T12:40:07.053Z,26.35
2017-05-23T12:41:17.285Z,26.25
2017-05-23T12:42:26.902Z,26.3
2017-05-23T12:43:36.830Z,26.25
2017-05-23T12:44:46.513Z,26.32
2017-05-23T12:45:55.830Z,26.26
2017-05-23T12:47:05.209Z,26.28
2017-05-23T12:48:15.147Z,26.29
2017-05-23T12:49:25.381Z,26.3
2017-05-23T12:50:34.695Z,26.32
2017-05-23T12:51:44.323Z,26.26
2017-05-23T12:52:54.250Z,26.21
2017-05-23T12:54:03.570Z,26.29
2017-05-23T12:55:12.894Z,26.35
2017-05-23T12:56:22.180Z,26.3
2017-05-23T12:57:31.170Z,26.28
2017-05-23T12:58:41.398Z,26.33
2017-05-23T12:59:51.014Z,26.33
2017-05-23T13:01:00.643Z,26.25
2017-05-23T13:02:10.266Z,26.3
2017-05-23T13:03:19.589Z,26.32
2017-05-23T13:04:29.845Z,26.3
2017-05-23T13:05:39.774Z,26.3
2017-05-23T13:06:49.716Z,26.29
2017-05-23T13:07:59.947Z,26.28
2017-05-23T13:09:10.193Z,26.25
2017-05-23T13:10:19.491Z,26.26
2017-05-23T13:11:29.427Z,26.29
2017-05-23T13:12:39.054Z,26.39
2017-05-23T13:13:48.993Z,26.28
2017-05-23T13:14:59.237Z,26.29
2017-05-23T13:16:09.170Z,26.35
2017-05-23T13:17:18.796Z,26.23
2017-05-23T13:18:28.721Z,26.26
2017-05-23T13:19:38.343Z,26.3
2017-05-23T13:20:47.972Z,26.3
2017-05-23T13:21:56.970Z,26.32
2017-05-23T13:23:06.624Z,26.25
2017-05-23T13:24:15.940Z,26.25
2017-05-23T13:25:25.875Z,26.26
2017-05-23T13:26:35.503Z,26.29
2017-05-23T13:27:45.739Z,26.29
2017-05-23T13:28:55.055Z,26.25
2017-05-23T13:30:05.307Z,26.21
2017-05-23T13:31:14.925Z,26.15
2017-05-23T13:32:24.533Z,26.21
2017-05-23T13:33:34.759Z,26.23
2017-05-23T13:34:44.381Z,26.28
2017-05-23T13:35:53.987Z,26.2
2017-05-23T13:37:04.220Z,26.28
2017-05-23T13:38:14.461Z,26.26
2017-05-23T13:39:24.698Z,26.25
2017-05-23T13:40:34.377Z,26.29
2017-05-23T13:41:44.616Z,26.25
2017-05-23T13:42:54.563Z,26.21
2017-05-23T13:44:04.493Z,26.28
2017-05-23T13:45:14.129Z,26.29
2017-05-23T13:46:23.742Z,26.25
2017-05-23T13:47:33.356Z,26.33
2017-05-23T13:48:42.676Z,26.3
2017-05-23T13:49:52.280Z,26.33
2017-05-23T13:51:01.598Z,26.25
2017-05-23T13:52:11.530Z,26.32
2017-05-23T13:53:21.155Z,26.29
2017-05-23T13:54:30.764Z,26.33
2017-05-23T13:55:40.702Z,26.36
2017-05-23T13:56:50.329Z,26.32
2017-05-23T13:57:59.956Z,26.32
2017-05-23T13:59:09.887Z,26.36
2017-05-23T14:00:19.807Z,26.28
2017-05-23T14:01:29.424Z,26.26
2017-05-23T14:02:39.046Z,26.25
2017-05-23T14:03:49.268Z,26.33
2017-05-23T14:04:58.878Z,26.32
2017-05-23T14:06:08.174Z,26.33
2017-05-23T14:07:17.794Z,26.33
2017-05-23T14:08:27.411Z,26.29
2017-05-23T14:09:37.023Z,26.35
2017-05-23T14:10:46.948Z,26.23
2017-05-23T14:11:56.643Z,26.2
2017-05-23T14:13:06.605Z,26.26
2017-05-23T14:14:16.238Z,26.26
2017-05-23T14:15:26.165Z,26.25
2017-05-23T14:16:36.384Z,26.25
2017-05-23T14:17:46.318Z,26.2
2017-05-23T14:18:56.313Z,26.26
2017-05-23T14:20:06.551Z,26.29
2017-05-23T14:21:15.557Z,26.25
2017-05-23T14:22:25.486Z,26.25
2017-05-23T14:23:35.715Z,26.32
2017-05-23T14:24:45.052Z,26.23
2017-05-23T14:25:54.666Z,26.3
2017-05-23T14:27:04.277Z,26.29
2017-05-23T14:28:14.519Z,26.29
2017-05-23T14:29:24.428Z,26.28
2017-05-23T14:30:34.041Z,26.3
2017-05-23T14:31:43.344Z,26.26
2017-05-23T14:32:52.965Z,26.2
2017-05-23T14:34:02.898Z,26.21
2017-05-23T14:35:12.833Z,26.26
2017-05-23T14:36:23.064Z,26.2
2017-05-23T14:37:32.722Z,26.26
2017-05-23T14:38:42.648Z,26.2
2017-05-23T14:39:52.260Z,26.09
2017-05-23T14:41:01.567Z,26.12
2017-05-23T14:42:10.875Z,26.1
2017-05-23T14:43:21.094Z,26.18
2017-05-23T14:44:31.337Z,26.13
2017-05-23T14:45:40.638Z,26.17
2017-05-23T14:46:50.575Z,26.09
2017-05-23T14:48:00.185Z,26.09
2017-05-23T14:49:09.799Z,26.09
2017-05-23T14:50:19.496Z,26.2
2017-05-23T14:51:29.116Z,26.09
2017-05-23T14:52:39.040Z,26.18
2017-05-23T14:53:48.355Z,26.21
2017-05-23T14:54:58.591Z,26.25
2017-05-23T14:56:08.831Z,26.26
2017-05-23T14:57:18.453Z,26.21
2017-05-23T14:58:28.066Z,26.21
2017-05-23T14:59:37.378Z,26.21
2017-05-23T15:00:47.625Z,26.29
2017-05-23T15:01:56.934Z,26.21
2017-05-23T15:03:07.165Z,26.28
2017-05-23T15:04:16.767Z,26.2
2017-05-23T15:05:26.693Z,26.26
2017-05-23T15:06:36.608Z,26.25
2017-05-23T15:07:46.861Z,26.26
2017-05-23T15:08:56.793Z,26.25
2017-05-23T15:10:06.435Z,26.29